Time;durP1;ratioP1;P1;durP2;ratioP2;P2;SDS_P1;SDS_P2;PMS_P1;PMS_P2;Temp;Humidity;BMP_temperature;BMP_pressure;BME280_temperature;BME280_humidity;BME280_pressure;Samples;Min_cycle;Max_cycle;Signal;HPM_P1;HPM_P2
2022/07/22 00:02:06;;;;;;;9.90;9.00;;;18.40;99.90;;;;;;5071898;28;20439;-66
2022/07/22 00:04:34;;;;;;;11.40;10.30;;;18.30;99.90;;;;;;5072041;28;20776;-66
2022/07/22 00:07:00;;;;;;;12.30;11.10;;;18.20;99.90;;;;;;5072399;28;20443;-65
2022/07/22 00:09:27;;;;;;;12.97;11.87;;;18.20;99.90;;;;;;5072334;28;20506;-66
2022/07/22 00:11:54;;;;;;;12.23;11.13;;;18.10;99.90;;;;;;5071202;28;20814;-66
2022/07/22 00:14:23;;;;;;;11.20;10.10;;;18.10;99.90;;;;;;5071827;28;20459;-65
2022/07/22 00:16:49;;;;;;;11.60;10.43;;;18.00;99.90;;;;;;5072186;28;20454;-65
2022/07/22 00:19:16;;;;;;;13.47;11.80;;;18.00;99.90;;;;;;5072208;28;20933;-66
2022/07/22 00:21:43;;;;;;;12.00;11.00;;;18.00;99.90;;;;;;5071171;28;20450;-65
2022/07/22 00:24:11;;;;;;;12.40;11.20;;;18.00;99.90;;;;;;5072190;28;20814;-65
2022/07/22 00:26:37;;;;;;;11.40;10.33;;;17.90;99.90;;;;;;5071646;28;20435;-65
2022/07/22 00:29:04;;;;;;;12.17;11.00;;;17.90;99.90;;;;;;5071829;28;20925;-65
2022/07/22 00:31:33;;;;;;;12.60;11.17;;;17.90;99.90;;;;;;5071395;28;20442;-65
2022/07/22 00:34:01;;;;;;;13.73;12.43;;;17.90;99.90;;;;;;5071593;28;20439;-65
2022/07/22 00:36:28;;;;;;;14.93;11.80;;;17.80;99.90;;;;;;5071518;28;20505;-66
2022/07/22 00:38:55;;;;;;;12.97;11.70;;;17.70;99.90;;;;;;5072305;28;20443;-65
2022/07/22 00:41:22;;;;;;;12.67;11.37;;;17.80;99.90;;;;;;5071754;28;20431;-66
2022/07/22 00:43:53;;;;;;;11.47;10.47;;;17.70;99.90;;;;;;5072344;28;20439;-66
2022/07/22 00:46:20;;;;;;;12.13;11.10;;;17.60;99.90;;;;;;5071673;28;20475;-66
2022/07/22 00:48:49;;;;;;;12.40;11.30;;;17.70;99.90;;;;;;5071374;28;20447;-66
2022/07/22 00:51:17;;;;;;;12.73;11.03;;;17.60;99.90;;;;;;5070876;28;20491;-66
2022/07/22 00:53:44;;;;;;;12.70;11.50;;;17.60;99.90;;;;;;5071679;28;20458;-66
2022/07/22 00:56:11;;;;;;;13.03;11.77;;;17.60;99.90;;;;;;5071010;28;20925;-66
2022/07/22 00:58:38;;;;;;;13.20;11.90;;;17.50;99.90;;;;;;5071356;28;20453;-66
2022/07/22 01:01:05;;;;;;;13.43;12.23;;;17.50;99.90;;;;;;5070544;28;20459;-66
2022/07/22 01:03:32;;;;;;;14.30;13.10;;;17.50;99.90;;;;;;5071167;28;20941;-65
2022/07/22 01:06:00;;;;;;;13.17;12.03;;;17.60;99.90;;;;;;5070575;28;21015;-65
2022/07/22 01:08:27;;;;;;;13.23;12.03;;;17.50;99.90;;;;;;5071163;28;20451;-65
2022/07/22 01:10:54;;;;;;;14.20;12.80;;;17.50;99.90;;;;;;5070208;28;20479;-66
2022/07/22 01:13:21;;;;;;;15.00;13.70;;;17.50;99.90;;;;;;5071160;28;20963;-66
2022/07/22 01:15:48;;;;;;;14.27;13.07;;;17.40;99.90;;;;;;5070614;28;20486;-65
2022/07/22 01:18:15;;;;;;;15.20;13.50;;;17.40;99.90;;;;;;5071108;28;20442;-65
2022/07/22 01:20:43;;;;;;;15.53;13.90;;;17.30;99.90;;;;;;5070168;28;20450;-65
2022/07/22 01:23:10;;;;;;;14.80;13.40;;;17.40;99.90;;;;;;5071491;28;20446;-65
2022/07/22 01:25:37;;;;;;;15.20;13.80;;;17.40;99.90;;;;;;5070693;28;20851;-66
2022/07/22 01:28:04;;;;;;;15.93;13.80;;;17.40;99.90;;;;;;5071013;28;20494;-66
2022/07/22 01:30:31;;;;;;;14.97;13.50;;;17.30;99.90;;;;;;5070167;28;20500;-65
2022/07/22 01:32:58;;;;;;;13.13;11.93;;;17.20;99.90;;;;;;5070647;28;20462;-65
2022/07/22 01:35:25;;;;;;;14.10;12.70;;;17.20;99.90;;;;;;5070272;28;20473;-66
2022/07/22 01:37:53;;;;;;;15.20;13.90;;;17.20;99.90;;;;;;5070416;28;20541;-66
2022/07/22 01:40:20;;;;;;;16.80;13.27;;;17.10;99.90;;;;;;5069693;28;20454;-66
2022/07/22 01:42:46;;;;;;;13.30;12.13;;;17.20;99.90;;;;;;5070404;28;20453;-65
2022/07/22 01:45:13;;;;;;;14.33;12.90;;;17.30;99.90;;;;;;5070172;28;20455;-66
2022/07/22 01:47:40;;;;;;;15.20;13.80;;;17.10;99.90;;;;;;5070380;28;20931;-65
2022/07/22 01:50:10;;;;;;;14.00;12.70;;;17.10;99.90;;;;;;5069616;28;20493;-66
2022/07/22 01:52:37;;;;;;;15.50;14.17;;;17.10;99.90;;;;;;5070793;28;20989;-66
2022/07/22 01:55:07;;;;;;;12.57;11.47;;;17.20;99.90;;;;;;5070078;28;20470;-66
2022/07/22 01:57:34;;;;;;;14.57;13.27;;;17.10;99.90;;;;;;5070270;28;20849;-65
2022/07/22 02:00:01;;;;;;;15.77;14.33;;;17.20;99.90;;;;;;5069729;28;20444;-65
2022/07/22 02:02:27;;;;;;;14.27;12.77;;;17.20;99.90;;;;;;5070886;28;20458;-65
2022/07/22 02:04:54;;;;;;;15.50;14.10;;;17.10;99.90;;;;;;5070254;28;20459;-66
2022/07/22 02:07:21;;;;;;;16.10;14.70;;;17.00;99.90;;;;;;5070987;28;20473;-66
2022/07/22 02:09:48;;;;;;;15.23;13.90;;;17.00;99.90;;;;;;5069206;28;20581;-65
2022/07/22 02:12:16;;;;;;;15.67;14.40;;;16.90;99.90;;;;;;5070856;28;20445;-66
2022/07/22 02:14:43;;;;;;;15.37;13.90;;;16.90;99.90;;;;;;5070378;28;20465;-66
2022/07/22 02:17:09;;;;;;;15.03;13.70;;;16.90;99.90;;;;;;5070130;28;20435;-66
2022/07/22 02:19:36;;;;;;;14.07;12.70;;;17.00;99.90;;;;;;5070722;28;20439;-66
2022/07/22 02:22:03;;;;;;;17.17;15.43;;;16.90;99.90;;;;;;5070219;28;20992;-65
2022/07/22 02:24:30;;;;;;;17.10;15.50;;;16.80;99.90;;;;;;5070061;28;20459;-66
2022/07/22 02:26:57;;;;;;;16.83;15.23;;;16.80;99.90;;;;;;5070277;28;20453;-67
2022/07/22 02:29:25;;;;;;;15.90;14.40;;;16.80;99.90;;;;;;5070580;28;20462;-66
2022/07/22 02:31:52;;;;;;;14.50;12.90;;;16.80;99.90;;;;;;5069603;28;20513;-66
2022/07/22 02:34:19;;;;;;;16.43;14.80;;;16.90;99.90;;;;;;5069617;28;20463;-66
2022/07/22 02:36:46;;;;;;;17.53;15.93;;;16.80;99.90;;;;;;5069773;28;20458;-65
2022/07/22 02:39:13;;;;;;;16.10;14.50;;;16.80;99.90;;;;;;5069930;28;20458;-65
2022/07/22 02:41:40;;;;;;;15.47;14.07;;;16.70;99.90;;;;;;5068433;28;20439;-65
2022/07/22 02:44:07;;;;;;;16.27;14.73;;;16.70;99.90;;;;;;5069723;28;20457;-65
2022/07/22 02:46:35;;;;;;;17.17;15.40;;;16.70;99.90;;;;;;5069454;28;20447;-65
2022/07/22 02:49:02;;;;;;;16.60;15.10;;;16.70;99.90;;;;;;5069793;28;20451;-66
2022/07/22 02:51:29;;;;;;;16.03;14.53;;;16.60;99.90;;;;;;5068744;28;20579;-66
2022/07/22 02:53:56;;;;;;;17.10;15.40;;;16.70;99.90;;;;;;5069465;28;20454;-66
2022/07/22 02:56:22;;;;;;;18.13;16.23;;;16.60;99.90;;;;;;5069117;28;20463;-66
2022/07/22 02:58:52;;;;;;;17.83;16.00;;;16.60;99.90;;;;;;5069210;28;20454;-66
2022/07/22 03:01:19;;;;;;;18.20;16.50;;;16.50;99.90;;;;;;5068829;28;20474;-65
2022/07/22 03:03:48;;;;;;;16.17;14.50;;;16.50;99.90;;;;;;5069364;28;20443;-65
2022/07/22 03:06:14;;;;;;;16.40;14.90;;;16.50;99.90;;;;;;5069081;28;20470;-66
2022/07/22 03:08:41;;;;;;;17.67;15.97;;;16.40;99.90;;;;;;5071276;28;20443;-65
2022/07/22 03:11:08;;;;;;;17.80;16.10;;;16.40;99.90;;;;;;5072473;28;20860;-65
2022/07/22 03:13:35;;;;;;;18.57;16.87;;;16.40;99.90;;;;;;5073364;28;20450;-65
2022/07/22 03:16:02;;;;;;;17.67;15.90;;;16.40;99.90;;;;;;5072975;28;20972;-65
2022/07/22 03:18:29;;;;;;;17.37;15.77;;;16.40;99.90;;;;;;5073326;28;20453;-66
2022/07/22 03:20:57;;;;;;;17.10;15.30;;;16.30;99.90;;;;;;5072418;28;20458;-65
2022/07/22 03:23:24;;;;;;;17.03;15.43;;;16.40;99.90;;;;;;5073009;28;20443;-65
2022/07/22 03:25:50;;;;;;;16.13;14.40;;;16.40;99.90;;;;;;5072392;28;20479;-66
2022/07/22 03:28:17;;;;;;;16.63;15.13;;;16.30;99.90;;;;;;5073003;28;20453;-66
2022/07/22 03:30:44;;;;;;;17.43;15.60;;;16.30;99.90;;;;;;5072062;28;20479;-66
2022/07/22 03:33:11;;;;;;;18.40;16.57;;;16.30;99.90;;;;;;5073072;28;20454;-65
2022/07/22 03:35:37;;;;;;;16.83;15.30;;;16.30;99.90;;;;;;5072352;28;20474;-65
2022/07/22 03:38:06;;;;;;;16.37;14.77;;;16.30;99.90;;;;;;5072647;28;20451;-66
2022/07/22 03:40:33;;;;;;;15.30;13.80;;;16.20;99.90;;;;;;5071755;28;20439;-65
2022/07/22 03:43:00;;;;;;;16.27;14.73;;;16.20;99.90;;;;;;5072816;28;20850;-65
2022/07/22 03:45:27;;;;;;;17.33;15.63;;;16.20;99.90;;;;;;5072167;28;21102;-65
2022/07/22 03:47:57;;;;;;;17.07;15.30;;;16.20;99.90;;;;;;5073059;28;20450;-66
2022/07/22 03:50:24;;;;;;;16.67;15.17;;;16.20;99.90;;;;;;5071998;28;20474;-66
2022/07/22 03:52:51;;;;;;;17.70;15.63;;;16.10;99.90;;;;;;5072334;28;20960;-65
2022/07/22 03:55:19;;;;;;;15.27;13.83;;;16.20;99.90;;;;;;5072628;28;20475;-66
2022/07/22 03:57:46;;;;;;;18.90;16.73;;;16.20;99.90;;;;;;5072747;28;21009;-66
2022/07/22 04:00:13;;;;;;;18.03;16.13;;;16.10;99.90;;;;;;5072071;28;20443;-66
2022/07/22 04:02:40;;;;;;;17.60;16.00;;;16.10;99.90;;;;;;5072601;28;20447;-66
2022/07/22 04:05:07;;;;;;;17.00;15.40;;;16.10;99.90;;;;;;5072324;28;20473;-66
2022/07/22 04:07:34;;;;;;;17.60;15.47;;;16.00;99.90;;;;;;5072377;28;20896;-66
2022/07/22 04:10:05;;;;;;;17.10;15.30;;;16.10;99.90;;;;;;5072184;28;20815;-65
2022/07/22 04:12:35;;;;;;;17.23;15.50;;;16.10;99.90;;;;;;5072529;28;20539;-65
2022/07/22 04:15:02;;;;;;;17.70;15.90;;;16.30;99.90;;;;;;5072340;28;20463;-65
2022/07/22 04:17:28;;;;;;;18.20;16.40;;;16.30;99.90;;;;;;5072569;28;20450;-65
2022/07/22 04:19:56;;;;;;;16.37;14.80;;;16.30;99.90;;;;;;5070529;28;20454;-66
2022/07/22 04:22:23;;;;;;;17.87;16.17;;;16.40;99.90;;;;;;5072172;28;20967;-65
2022/07/22 04:24:50;;;;;;;19.00;17.20;;;16.40;99.90;;;;;;5071902;28;20467;-65
2022/07/22 04:27:17;;;;;;;17.43;15.67;;;16.40;99.90;;;;;;5072600;28;20454;-65
2022/07/22 04:29:45;;;;;;;17.73;16.03;;;16.50;99.90;;;;;;5072071;28;20443;-64
2022/07/22 04:32:12;;;;;;;19.93;16.57;;;16.50;99.90;;;;;;5072341;28;20475;-66
2022/07/22 04:34:39;;;;;;;16.63;14.90;;;16.50;99.90;;;;;;5072242;28;20471;-65
2022/07/22 04:37:06;;;;;;;17.60;15.80;;;16.50;99.90;;;;;;5072758;28;20554;-65
2022/07/22 04:39:32;;;;;;;18.60;16.87;;;16.70;99.90;;;;;;5072281;28;20462;-65
2022/07/22 04:41:59;;;;;;;18.17;16.57;;;16.80;99.90;;;;;;5072175;28;20439;-68
2022/07/22 04:44:26;;;;;;;19.20;17.30;;;16.70;99.90;;;;;;5071236;28;21140;-67
2022/07/22 04:46:54;;;;;;;17.97;16.10;;;16.80;99.90;;;;;;5072398;28;20458;-68
2022/07/22 04:49:21;;;;;;;17.60;16.00;;;16.90;99.90;;;;;;5072856;28;20442;-69
2022/07/22 04:51:48;;;;;;;16.53;14.97;;;16.90;99.90;;;;;;5070630;28;20866;-68
2022/07/22 04:54:15;;;;;;;17.07;15.40;;;17.00;99.90;;;;;;5071494;28;20451;-69
2022/07/22 04:56:42;;;;;;;15.77;14.37;;;17.00;99.90;;;;;;5071293;28;20964;-67
2022/07/22 04:59:08;;;;;;;17.10;14.63;;;17.10;99.90;;;;;;5071717;28;20447;-67
2022/07/22 05:01:35;;;;;;;18.70;15.60;;;17.10;99.90;;;;;;5070282;28;20439;-66
2022/07/22 05:04:04;;;;;;;14.93;13.57;;;17.20;99.90;;;;;;5068086;28;20447;-65
2022/07/22 05:06:31;;;;;;;17.17;15.57;;;17.30;99.90;;;;;;5060041;28;20465;-66
2022/07/22 05:08:58;;;;;;;16.20;14.70;;;17.30;99.90;;;;;;5071467;28;20534;-67
2022/07/22 05:11:25;;;;;;;15.13;13.83;;;17.30;99.90;;;;;;5070233;28;20479;-66
2022/07/22 05:13:52;;;;;;;16.40;14.87;;;17.30;99.90;;;;;;5070913;28;20455;-67
2022/07/22 05:16:19;;;;;;;16.03;14.67;;;17.40;99.90;;;;;;5070710;28;20805;-67
2022/07/22 05:18:45;;;;;;;16.90;15.10;;;17.50;99.90;;;;;;5071168;28;20450;-67
2022/07/22 05:21:14;;;;;;;16.20;14.33;;;17.60;99.90;;;;;;5070469;28;20435;-67
2022/07/22 05:23:40;;;;;;;17.47;15.60;;;17.70;99.90;;;;;;5070855;28;20444;-67
2022/07/22 05:26:08;;;;;;;15.80;14.40;;;17.50;99.90;;;;;;5069955;28;20913;-66
2022/07/22 05:28:34;;;;;;;16.13;14.53;;;17.60;99.90;;;;;;5070308;28;20455;-67
2022/07/22 05:31:01;;;;;;;17.00;15.50;;;17.60;99.90;;;;;;5069477;28;20504;-66
2022/07/22 05:33:28;;;;;;;16.87;15.37;;;17.70;99.90;;;;;;5070433;28;20454;-67
2022/07/22 05:35:55;;;;;;;17.77;15.90;;;17.80;99.90;;;;;;5070148;28;20473;-66
2022/07/22 05:38:23;;;;;;;16.47;14.87;;;17.80;99.90;;;;;;5070992;28;20868;-67
2022/07/22 05:40:50;;;;;;;17.80;16.20;;;17.90;99.90;;;;;;5070013;28;20451;-67
2022/07/22 05:43:17;;;;;;;17.73;16.13;;;18.00;99.90;;;;;;5070682;28;20471;-65
2022/07/22 05:45:44;;;;;;;17.53;15.83;;;18.10;99.90;;;;;;5070295;28;20463;-67
2022/07/22 05:48:10;;;;;;;17.73;15.80;;;18.20;99.90;;;;;;5070447;28;20487;-66
2022/07/22 05:50:37;;;;;;;17.03;14.70;;;18.20;99.90;;;;;;5069348;28;20443;-66
2022/07/22 05:53:04;;;;;;;17.10;15.47;;;18.30;99.90;;;;;;5070838;28;20956;-67
2022/07/22 05:55:32;;;;;;;15.57;14.10;;;18.40;99.90;;;;;;5070080;28;20467;-66
2022/07/22 05:57:59;;;;;;;16.80;15.33;;;18.40;99.90;;;;;;5069970;28;20451;-66
2022/07/22 06:00:26;;;;;;;16.83;15.30;;;18.50;99.90;;;;;;5069468;28;20538;-65
2022/07/22 06:02:53;;;;;;;17.27;15.47;;;18.70;99.90;;;;;;5070296;28;20466;-66
2022/07/22 06:05:20;;;;;;;16.17;14.67;;;18.70;99.90;;;;;;5069582;28;20836;-66
2022/07/22 06:07:47;;;;;;;17.50;15.83;;;18.80;99.90;;;;;;5070002;28;20453;-65
2022/07/22 06:10:14;;;;;;;17.03;15.53;;;18.90;99.90;;;;;;5069043;28;20451;-66
2022/07/22 06:12:42;;;;;;;17.33;15.70;;;19.00;99.90;;;;;;5069646;28;20487;-66
2022/07/22 06:15:09;;;;;;;18.17;16.50;;;18.90;99.90;;;;;;5069621;28;20467;-66
2022/07/22 06:17:36;;;;;;;16.73;15.23;;;19.00;99.90;;;;;;5069857;28;20443;-65
2022/07/22 06:20:04;;;;;;;16.43;14.80;;;19.10;99.90;;;;;;5069125;28;20443;-66
2022/07/22 06:22:30;;;;;;;16.90;15.30;;;19.20;99.90;;;;;;5069940;28;20494;-68
2022/07/22 06:24:57;;;;;;;15.43;13.90;;;19.30;99.90;;;;;;5069242;28;20474;-66
2022/07/22 06:27:24;;;;;;;16.03;14.53;;;19.30;99.90;;;;;;5069956;28;20465;-66
2022/07/22 06:29:52;;;;;;;15.10;13.73;;;19.30;99.90;;;;;;5069465;28;20486;-67
2022/07/22 06:32:19;;;;;;;15.83;14.33;;;19.40;99.90;;;;;;5069833;28;20485;-68
2022/07/22 06:34:46;;;;;;;17.50;15.93;;;19.50;99.90;;;;;;5069406;28;20467;-69
2022/07/22 06:37:13;;;;;;;19.40;17.40;;;19.60;99.90;;;;;;5069836;28;20459;-69
2022/07/22 06:39:39;;;;;;;18.23;16.60;;;19.70;99.90;;;;;;5069399;28;20454;-68
2022/07/22 06:42:06;;;;;;;16.97;15.57;;;19.70;99.90;;;;;;5063870;28;20452;-69
2022/07/22 06:44:33;;;;;;;19.00;17.17;;;19.70;99.90;;;;;;5063867;28;20473;-68
2022/07/22 06:47:01;;;;;;;19.60;17.70;;;19.80;99.90;;;;;;5068695;28;20960;-66
2022/07/22 06:49:28;;;;;;;17.40;15.77;;;19.90;99.90;;;;;;5062941;28;20451;-67
2022/07/22 06:51:55;;;;;;;19.03;17.23;;;19.90;99.90;;;;;;5066970;28;20506;-70
2022/07/22 06:54:22;;;;;;;16.53;15.00;;;19.90;99.90;;;;;;5067856;28;20467;-68
2022/07/22 06:56:49;;;;;;;15.60;14.20;;;20.00;99.90;;;;;;5068374;28;20457;-67
2022/07/22 06:59:16;;;;;;;17.67;15.87;;;20.10;99.90;;;;;;5068751;28;20447;-66
2022/07/22 07:01:42;;;;;;;15.70;14.20;;;20.20;99.90;;;;;;5067652;28;20909;-66
2022/07/22 07:04:11;;;;;;;17.20;15.50;;;20.30;99.90;;;;;;5068125;28;20447;-68
2022/07/22 07:06:37;;;;;;;16.93;15.33;;;20.40;99.90;;;;;;5067840;28;20968;-67
2022/07/22 07:09:04;;;;;;;17.93;15.67;;;20.50;99.90;;;;;;5069155;28;20443;-67
2022/07/22 07:11:31;;;;;;;16.20;14.80;;;20.70;99.90;;;;;;5068442;28;20483;-67
2022/07/22 07:13:58;;;;;;;16.57;14.90;;;20.70;99.90;;;;;;5069423;28;20450;-67
2022/07/22 07:16:25;;;;;;;15.43;13.93;;;20.90;99.90;;;;;;5068621;28;20467;-66
2022/07/22 07:18:51;;;;;;;14.57;13.27;;;21.00;99.90;;;;;;5069280;28;20857;-67
2022/07/22 07:21:20;;;;;;;14.17;12.87;;;21.00;99.90;;;;;;5068298;28;20451;-67
2022/07/22 07:23:46;;;;;;;16.37;14.77;;;21.10;99.90;;;;;;5068951;28;20443;-67
2022/07/22 07:26:14;;;;;;;16.77;15.07;;;21.20;99.90;;;;;;5068940;28;20473;-69
2022/07/22 07:28:41;;;;;;;15.00;13.60;;;21.20;99.90;;;;;;5069040;28;20454;-69
2022/07/22 07:31:08;;;;;;;14.70;13.40;;;21.30;99.90;;;;;;5068411;28;20841;-68
2022/07/22 07:33:35;;;;;;;13.90;12.50;;;21.40;99.90;;;;;;5067468;28;21103;-68
2022/07/22 07:36:02;;;;;;;15.40;14.00;;;21.60;99.90;;;;;;5068716;28;20490;-69
2022/07/22 07:38:30;;;;;;;14.80;13.37;;;21.60;99.90;;;;;;5069194;28;20443;-69
2022/07/22 07:40:57;;;;;;;14.13;12.73;;;21.70;99.90;;;;;;5068054;28;20470;-68
2022/07/22 07:43:24;;;;;;;16.03;14.33;;;21.80;99.90;;;;;;5068738;28;20845;-68
2022/07/22 07:45:51;;;;;;;14.40;13.10;;;21.90;99.90;;;;;;5068509;28;20471;-68
2022/07/22 07:48:18;;;;;;;15.90;14.37;;;22.00;99.90;;;;;;5068787;28;20933;-68
2022/07/22 07:50:44;;;;;;;15.67;14.17;;;22.10;99.90;;;;;;5067801;28;20972;-69
2022/07/22 07:53:15;;;;;;;15.50;14.10;;;22.10;99.90;;;;;;5068941;28;20483;-70
2022/07/22 07:55:43;;;;;;;17.50;15.83;;;22.20;99.90;;;;;;5069940;28;20473;-69
2022/07/22 07:58:10;;;;;;;14.97;13.50;;;22.20;99.90;;;;;;5072391;28;20447;-69
2022/07/22 08:00:38;;;;;;;17.07;15.53;;;22.20;99.90;;;;;;5071221;28;20438;-69
2022/07/22 08:03:05;;;;;;;16.50;14.20;;;22.30;99.90;;;;;;5072188;28;20482;-68
2022/07/22 08:05:32;;;;;;;15.07;13.60;;;22.30;99.90;;;;;;5071958;28;20478;-69
2022/07/22 08:07:59;;;;;;;15.27;13.80;;;22.50;99.90;;;;;;5072363;28;20439;-69
2022/07/22 08:10:27;;;;;;;15.33;13.93;;;22.70;99.90;;;;;;5071438;28;20453;-68
2022/07/22 08:12:57;;;;;;;17.33;15.70;;;22.80;99.90;;;;;;5072133;28;21034;-68
2022/07/22 08:15:24;;;;;;;15.80;14.20;;;22.90;99.90;;;;;;5071639;28;20569;-68
2022/07/22 08:17:51;;;;;;;15.70;14.30;;;23.00;99.90;;;;;;5072186;28;20455;-69
2022/07/22 08:20:18;;;;;;;16.00;14.60;;;23.10;99.90;;;;;;5071544;28;20451;-69
2022/07/22 08:22:45;;;;;;;16.70;15.17;;;23.20;99.90;;;;;;5072106;28;20439;-69
2022/07/22 08:25:12;;;;;;;17.10;15.17;;;23.30;99.90;;;;;;5070695;28;20834;-68
2022/07/22 08:27:39;;;;;;;15.47;14.07;;;23.30;99.90;;;;;;5070141;28;20443;-67
2022/07/22 08:30:08;;;;;;;16.83;15.20;;;23.50;99.90;;;;;;5070833;28;20561;-70
2022/07/22 08:32:35;;;;;;;15.73;14.33;;;23.60;99.90;;;;;;5071800;28;20482;-69
2022/07/22 08:35:02;;;;;;;13.30;12.10;;;23.70;99.90;;;;;;5071330;28;21042;-69
2022/07/22 08:37:29;;;;;;;15.33;13.83;;;23.90;99.90;;;;;;5071718;28;20461;-69
2022/07/22 08:39:58;;;;;;;16.53;14.80;;;24.00;99.90;;;;;;5070816;28;20828;-69
2022/07/22 08:42:25;;;;;;;15.10;13.80;;;24.10;99.90;;;;;;5071640;28;20469;-66
2022/07/22 08:44:53;;;;;;;15.33;13.93;;;24.30;99.90;;;;;;5071328;28;20532;-69
2022/07/22 08:47:23;;;;;;;15.63;14.30;;;24.30;99.90;;;;;;5071807;28;20451;-69
2022/07/22 08:49:50;;;;;;;15.30;13.80;;;24.30;99.90;;;;;;5070785;28;20868;-69
2022/07/22 08:52:17;;;;;;;15.43;14.03;;;24.30;99.90;;;;;;5071307;28;20992;-68
2022/07/22 08:54:44;;;;;;;14.70;13.40;;;24.20;99.90;;;;;;5071073;28;20467;-68
2022/07/22 08:57:10;;;;;;;17.37;14.90;;;24.20;99.90;;;;;;5071511;28;20451;-68
2022/07/22 08:59:51;;;;;;;15.57;14.07;;;24.30;99.90;;;;;;5071413;28;20466;-69
2022/07/22 09:02:18;;;;;;;14.87;13.57;;;24.40;99.90;;;;;;5071303;28;21003;-68
2022/07/22 09:04:54;;;;;;;16.27;14.73;;;24.70;99.90;;;;;;5071067;28;20463;-68
2022/07/22 09:07:29;;;;;;;13.70;12.50;;;24.80;99.90;;;;;;5070930;28;20438;-69
2022/07/22 09:09:56;;;;;;;15.00;13.60;;;24.80;99.90;;;;;;5070940;28;20438;-68
2022/07/22 09:12:23;;;;;;;14.53;13.17;;;24.90;99.90;;;;;;5071293;28;20489;-68
2022/07/22 09:14:51;;;;;;;14.77;13.47;;;25.00;99.90;;;;;;5070559;28;20577;-68
2022/07/22 09:17:30;;;;;;;14.17;12.87;;;25.20;99.90;;;;;;5071062;28;20443;-68
2022/07/22 09:20:00;;;;;;;14.23;12.93;;;25.30;99.90;;;;;;5070494;28;21194;-68
2022/07/22 09:22:35;;;;;;;14.50;13.20;;;25.30;99.90;;;;;;5071281;28;20913;-68
2022/07/22 09:25:18;;;;;;;14.93;13.53;;;25.40;99.90;;;;;;5070234;28;20477;-68
2022/07/22 09:27:45;;;;;;;14.27;12.87;;;25.30;99.90;;;;;;5070489;28;20435;-68
2022/07/22 09:30:14;;;;;;;14.03;12.73;;;25.40;99.90;;;;;;5069873;28;20457;-69
2022/07/22 09:32:42;;;;;;;14.40;12.90;;;25.70;99.90;;;;;;5070478;28;20525;-69
2022/07/22 09:35:11;;;;;;;14.50;13.20;;;25.80;99.90;;;;;;5067415;28;20463;-69
2022/07/22 09:37:38;;;;;;;15.50;14.20;;;25.80;99.90;;;;;;5059145;28;20490;-69
2022/07/22 09:40:15;;;;;;;14.30;13.10;;;25.90;99.90;;;;;;5067612;28;20447;-70
2022/07/22 09:42:46;;;;;;;15.13;13.70;;;26.10;99.90;;;;;;5053095;28;20436;-70
2022/07/22 09:45:13;;;;;;;13.20;12.10;;;26.10;99.90;;;;;;5052075;28;20468;-69
2022/07/22 09:47:42;;;;;;;13.33;12.10;;;26.30;99.90;;;;;;5061527;28;20443;-70
2022/07/22 09:50:18;;;;;;;12.57;11.47;;;26.50;99.90;;;;;;5065284;28;20455;-70
2022/07/22 09:52:45;;;;;;;13.50;12.30;;;26.80;99.90;;;;;;5067148;28;20557;-70
2022/07/22 09:55:15;;;;;;;12.80;11.47;;;26.90;99.90;;;;;;5069551;28;20474;-70
2022/07/22 09:57:42;;;;;;;13.80;12.50;;;27.10;99.90;;;;;;5070469;28;20443;-69
2022/07/22 10:00:10;;;;;;;12.70;11.40;;;27.60;99.90;;;;;;5069309;28;20443;-70
2022/07/22 10:02:42;;;;;;;11.80;10.73;;;28.30;99.90;;;;;;5070351;28;20483;-70
2022/07/22 10:05:12;;;;;;;12.83;10.43;;;29.10;99.90;;;;;;5069755;28;20551;-70
2022/07/22 10:07:41;;;;;;;10.90;9.90;;;29.70;99.10;;;;;;5067584;28;20452;-70
2022/07/22 10:10:11;;;;;;;10.20;9.30;;;29.30;98.30;;;;;;5067581;28;20482;-70
2022/07/22 10:12:38;;;;;;;8.97;8.27;;;29.50;98.00;;;;;;5064974;28;20473;-70
2022/07/22 10:15:07;;;;;;;11.00;9.10;;;30.00;97.50;;;;;;5064228;28;20512;-70
2022/07/22 10:17:36;;;;;;;9.83;8.93;;;30.50;96.50;;;;;;5068881;28;20443;-68
2022/07/22 10:20:04;;;;;;;9.27;8.57;;;31.30;94.60;;;;;;5059211;28;20444;-68
2022/07/22 10:22:52;;;;;;;9.77;8.97;;;32.20;93.30;;;;;;5059396;28;20448;-70
2022/07/22 10:25:20;;;;;;;9.03;8.17;;;32.30;91.70;;;;;;5065665;28;20465;-70
2022/07/22 10:27:49;;;;;;;10.27;9.40;;;32.80;92.00;;;;;;5060624;28;20459;-70
2022/07/22 10:30:17;;;;;;;9.63;8.70;;;32.80;91.30;;;;;;5056436;28;20455;-71
2022/07/22 10:32:44;;;;;;;9.80;8.90;;;32.20;92.30;;;;;;5057092;28;20478;-70
2022/07/22 10:35:23;;;;;;;10.10;9.20;;;31.80;91.00;;;;;;5061109;28;20466;-70
2022/07/22 10:37:54;;;;;;;9.70;8.87;;;31.80;91.80;;;;;;5069311;28;20480;-68
2022/07/22 10:40:22;;;;;;;10.47;9.53;;;32.40;90.90;;;;;;5062587;28;20453;-69
2022/07/22 10:43:10;;;;;;;9.80;8.90;;;32.50;88.70;;;;;;5064700;28;21043;-69
2022/07/22 10:45:43;;;;;;;9.30;8.23;;;32.40;88.00;;;;;;5068375;28;20467;-69
2022/07/22 10:48:12;;;;;;;10.33;8.70;;;32.70;88.50;;;;;;5066333;28;21169;-68
2022/07/22 10:51:07;;;;;;;8.70;7.90;;;33.20;88.30;;;;;;5067601;28;20435;-69
2022/07/22 10:53:44;;;;;;;8.63;7.87;;;34.20;87.70;;;;;;5069112;28;20479;-69
2022/07/22 10:56:17;;;;;;;7.87;7.27;;;34.10;82.80;;;;;;5068822;28;21000;-70
2022/07/22 10:59:10;;;;;;;8.73;8.03;;;34.10;84.60;;;;;;5069633;28;20439;-69
2022/07/22 11:01:39;;;;;;;9.23;8.50;;;34.60;86.60;;;;;;5062602;28;21047;-69
2022/07/22 11:04:11;;;;;;;9.10;8.00;;;34.80;81.70;;;;;;5069306;28;20490;-69
2022/07/22 11:06:38;;;;;;;8.23;7.57;;;34.80;78.10;;;;;;5069119;28;20455;-69
2022/07/22 11:09:08;;;;;;;8.10;7.50;;;35.10;80.70;;;;;;5069736;28;20439;-70
2022/07/22 11:11:41;;;;;;;8.83;8.00;;;35.50;76.90;;;;;;5068603;28;20462;-68
2022/07/22 11:14:21;;;;;;;8.90;8.13;;;35.50;75.50;;;;;;5069246;28;20518;-69
2022/07/22 11:16:50;;;;;;;8.23;7.43;;;35.20;75.60;;;;;;5069412;28;21177;-69
2022/07/22 11:19:21;;;;;;;8.40;7.70;;;34.90;76.90;;;;;;5069574;28;20458;-68
2022/07/22 11:21:51;;;;;;;8.80;8.00;;;35.20;77.80;;;;;;5068222;28;20457;-69
2022/07/22 11:24:21;;;;;;;7.57;6.97;;;35.40;74.30;;;;;;5068645;28;20504;-69
2022/07/22 11:26:50;;;;;;;7.97;7.27;;;34.40;78.10;;;;;;5069212;28;20451;-69
2022/07/22 11:29:18;;;;;;;7.73;7.13;;;34.90;77.80;;;;;;5070129;28;20527;-69
2022/07/22 11:31:45;;;;;;;7.80;7.00;;;34.90;77.40;;;;;;5072195;28;20453;-69
2022/07/22 11:34:13;;;;;;;8.10;7.40;;;35.40;75.60;;;;;;5072849;28;20474;-69
2022/07/22 11:36:42;;;;;;;7.90;7.30;;;36.30;76.30;;;;;;5064957;28;20854;-70
2022/07/22 11:39:10;;;;;;;6.97;6.47;;;36.80;71.90;;;;;;5066057;28;20459;-69
2022/07/22 11:41:39;;;;;;;7.90;7.20;;;37.20;69.60;;;;;;5071218;28;20459;-69
2022/07/22 11:44:07;;;;;;;7.83;7.13;;;37.50;69.40;;;;;;5072237;28;20443;-69
2022/07/22 11:46:38;;;;;;;8.17;7.47;;;38.10;67.20;;;;;;5068293;28;20537;-69
2022/07/22 11:49:05;;;;;;;7.90;7.20;;;38.10;69.00;;;;;;5059976;28;20446;-69
2022/07/22 11:51:34;;;;;;;6.97;6.27;;;38.10;65.30;;;;;;5065171;28;20454;-67
2022/07/22 11:54:02;;;;;;;7.97;7.27;;;37.80;64.80;;;;;;5061926;28;20494;-69
2022/07/22 11:56:29;;;;;;;7.47;6.80;;;37.30;62.80;;;;;;5054056;28;20443;-69
2022/07/22 11:58:57;;;;;;;8.00;7.40;;;36.50;65.00;;;;;;5069117;28;21285;-69
2022/07/22 12:01:25;;;;;;;8.60;7.90;;;36.40;65.50;;;;;;5060916;28;20439;-70
2022/07/22 12:03:54;;;;;;;8.70;7.90;;;35.70;64.60;;;;;;5072324;28;20530;-69
2022/07/22 12:06:23;;;;;;;7.67;6.97;;;34.80;67.20;;;;;;5068348;28;20482;-69
2022/07/22 12:08:53;;;;;;;8.10;7.30;;;34.70;72.50;;;;;;5071608;28;20953;-68
2022/07/22 12:11:22;;;;;;;7.80;7.20;;;35.10;72.70;;;;;;5063110;28;20451;-71
2022/07/22 12:13:52;;;;;;;7.67;7.07;;;36.00;70.10;;;;;;5068027;28;20491;-70
2022/07/22 12:16:26;;;;;;;7.63;7.03;;;36.60;68.80;;;;;;5069299;28;20463;-70
2022/07/22 12:18:58;;;;;;;8.57;7.00;;;37.20;66.80;;;;;;5064107;28;20451;-70
2022/07/22 12:21:26;;;;;;;8.60;7.37;;;37.60;65.50;;;;;;5067224;28;20457;-69
2022/07/22 12:23:55;;;;;;;8.37;7.77;;;37.70;62.70;;;;;;5064233;28;20455;-69
2022/07/22 12:26:38;;;;;;;7.53;6.87;;;38.10;63.40;;;;;;5071183;28;20467;-70
2022/07/22 12:29:19;;;;;;;7.77;7.03;;;38.30;63.20;;;;;;5069126;28;20447;-71
2022/07/22 12:31:48;;;;;;;7.80;7.00;;;38.20;58.70;;;;;;5063121;28;20435;-71
2022/07/22 12:34:16;;;;;;;7.50;6.90;;;38.60;62.00;;;;;;5068705;28;20864;-68
2022/07/22 12:36:47;;;;;;;7.30;6.70;;;38.80;60.60;;;;;;5068910;28;20469;-70